createdAt,value
2023-04-29T00:00:22.630Z,18.51
2023-04-29T00:10:24.029Z,18.52
2023-04-29T00:20:25.556Z,18.52
2023-04-29T00:30:27.085Z,18.50
2023-04-29T00:40:28.917Z,18.46
2023-04-29T00:50:30.748Z,18.42
2023-04-29T01:00:32.452Z,18.39
2023-04-29T01:10:44.690Z,18.40
2023-04-29T01:20:46.672Z,18.36
2023-04-29T01:31:00.775Z,18.37
2023-04-29T01:41:15.194Z,18.34
2023-04-29T01:51:16.748Z,18.31
2023-04-29T02:01:18.372Z,18.28
2023-04-29T02:21:36.481Z,18.23
2023-04-29T02:31:38.119Z,18.22
2023-04-29T02:41:39.618Z,18.21
2023-04-29T02:51:41.326Z,18.22
2023-04-29T03:01:43.402Z,18.19
2023-04-29T03:11:45.129Z,18.15
2023-04-29T03:21:46.585Z,18.12
2023-04-29T03:31:48.226Z,18.08
2023-04-29T03:41:49.766Z,18.08
2023-04-29T03:51:51.370Z,18.06
2023-04-29T04:01:54.105Z,18.01
2023-04-29T04:11:55.551Z,18.00
2023-04-29T04:21:57.183Z,18.02
2023-04-29T04:31:58.662Z,18.25
2023-04-29T04:42:00.126Z,18.48
2023-04-29T04:52:01.669Z,18.62
2023-04-29T05:02:03.083Z,18.69
2023-04-29T05:12:04.658Z,18.74
2023-04-29T05:22:06.033Z,18.72
2023-04-29T05:32:07.933Z,18.71
2023-04-29T05:42:09.311Z,18.69
2023-04-29T05:52:10.896Z,18.71
2023-04-29T06:02:12.559Z,18.74
2023-04-29T06:12:13.974Z,18.79
2023-04-29T06:22:15.368Z,18.83
2023-04-29T06:32:16.880Z,18.84
2023-04-29T06:42:18.278Z,18.91
2023-04-29T06:52:19.781Z,18.93
2023-04-29T07:02:21.242Z,18.98
2023-04-29T07:12:22.736Z,19.03
2023-04-29T07:22:24.117Z,19.03
2023-04-29T07:32:25.513Z,19.05
2023-04-29T07:42:26.912Z,19.10
2023-04-29T07:52:28.315Z,19.14
2023-04-29T08:02:29.817Z,19.21
2023-04-29T08:12:31.705Z,19.32
2023-04-29T08:22:33.584Z,19.32
2023-04-29T08:32:35.121Z,19.31
2023-04-29T08:42:37.163Z,19.31
2023-04-29T08:52:38.544Z,19.30
2023-04-29T09:02:53.923Z,19.35
2023-04-29T09:12:58.608Z,19.37
2023-04-29T09:23:04.361Z,19.34
2023-04-29T09:33:07.609Z,19.35
2023-04-29T09:43:16.674Z,19.40
2023-04-29T09:53:31.397Z,19.43
2023-04-29T10:03:37.448Z,19.43
2023-04-29T10:13:39.283Z,19.41
2023-04-29T10:23:40.691Z,19.43
2023-04-29T10:33:43.664Z,19.45
2023-04-29T10:43:45.223Z,19.46
2023-04-29T10:53:59.611Z,19.50
2023-04-29T11:04:04.987Z,19.51
2023-04-29T11:14:07.945Z,19.55
2023-04-29T11:24:09.342Z,19.57
2023-04-29T11:34:11.013Z,19.56
2023-04-29T11:44:12.592Z,19.60
2023-04-29T11:54:14.114Z,19.62
2023-04-29T12:04:16.313Z,19.60
2023-04-29T12:14:18.499Z,19.63
2023-04-29T12:24:21.244Z,19.71
2023-04-29T12:34:28.550Z,19.84
2023-04-29T12:44:37.288Z,19.85
2023-04-29T12:54:43.562Z,19.91
2023-04-29T13:04:45.792Z,19.88
2023-04-29T13:14:47.481Z,19.93
2023-04-29T13:24:49.077Z,19.87
2023-04-29T13:34:50.798Z,19.83
2023-04-29T13:44:53.677Z,19.76
2023-04-29T13:55:38.935Z,19.66
2023-04-29T14:05:16.871Z,19.65
2023-04-29T14:15:18.480Z,19.61
2023-04-29T14:25:20.031Z,19.59
2023-04-29T14:35:21.604Z,19.57
2023-04-29T14:45:22.977Z,19.54
2023-04-29T14:55:24.344Z,19.57
2023-04-29T15:05:25.710Z,19.57
2023-04-29T15:15:27.093Z,19.51
2023-04-29T15:25:28.490Z,19.47
2023-04-29T15:35:29.858Z,19.46
2023-04-29T15:45:31.553Z,19.45
2023-04-29T15:55:34.956Z,19.40
2023-04-29T16:05:37.839Z,19.32
2023-04-29T16:15:39.527Z,19.27
2023-04-29T16:25:41.719Z,19.25
2023-04-29T16:35:43.244Z,19.27
2023-04-29T16:45:44.765Z,19.26
2023-04-29T16:55:46.676Z,19.21
2023-04-29T17:05:48.541Z,19.19
2023-04-29T17:15:49.971Z,19.18
2023-04-29T17:25:51.499Z,19.16
2023-04-29T17:35:52.868Z,19.13
2023-04-29T17:45:54.609Z,19.12
2023-04-29T17:55:56.244Z,19.09
2023-04-29T18:05:57.664Z,19.05
2023-04-29T18:15:59.240Z,19.00
2023-04-29T18:26:00.622Z,18.96
2023-04-29T18:36:02.048Z,18.92
2023-04-29T18:46:03.754Z,18.89
2023-04-29T18:56:05.371Z,18.81
2023-04-29T19:06:06.773Z,18.78
2023-04-29T19:16:08.374Z,18.73
2023-04-29T19:26:09.817Z,18.72
2023-04-29T19:36:12.763Z,18.69
2023-04-29T19:46:14.677Z,18.66
2023-04-29T19:56:16.421Z,18.64
2023-04-29T20:06:17.886Z,18.60
2023-04-29T20:16:19.545Z,18.57
2023-04-29T20:26:21.142Z,18.55
2023-04-29T20:36:23.197Z,18.53
2023-04-29T20:46:26.047Z,18.48
2023-04-29T20:56:27.624Z,18.45
2023-04-29T21:06:29.064Z,18.40
2023-04-29T21:16:30.471Z,18.37
2023-04-29T21:26:32.084Z,18.33
2023-04-29T21:36:33.722Z,18.30
2023-04-29T21:46:35.439Z,18.25
2023-04-29T21:56:37.073Z,18.17
2023-04-29T22:06:38.722Z,18.12
2023-04-29T22:16:40.320Z,18.07
2023-04-29T22:26:41.803Z,18.06
2023-04-29T22:36:44.282Z,18.00
2023-04-29T22:46:45.918Z,17.97
2023-04-29T22:56:47.496Z,17.91
2023-04-29T23:06:48.870Z,17.88
2023-04-29T23:16:50.950Z,17.83
2023-04-29T23:26:52.474Z,17.79
2023-04-29T23:36:54.001Z,17.77
2023-04-29T23:46:55.464Z,17.75
2023-04-29T23:56:56.842Z,17.72
